Terminal Aerodrome Forecast
Issued by NWS

Current Version | Previous Version | Text Only | Print | Product List | Glossary On
Versions: 1 2 3 4 5 6 7 8 9 10 11 12 13 14
183
FTUS42 KTAE 222335
TAFECP
TAF
KECP 222335Z 2300/2324 12007KT P6SM BKN070
     FM230100 12008KT 6SM -TSRA BKN025CB OVC070
      TEMPO 2309/2313 VRB15G25KT 2SM TSRA BKN012CB OVC040
     FM231300 21010KT 6SM -TSRA BKN025CB OVC070
     FM231600 28011KT P6SM SCT030=

USA.gov is the U.S. government's official web portal to all federal, state and local government web resources and services.